createdAt,value
2022-09-25T00:04:55.734Z,12.58
2022-09-25T00:10:17.987Z,12.59
2022-09-25T00:15:46.561Z,12.57
2022-09-25T00:21:11.209Z,12.59
2022-09-25T00:26:35.631Z,12.52
2022-09-25T00:31:57.922Z,12.54
2022-09-25T00:37:19.761Z,12.51
2022-09-25T00:42:41.403Z,12.45
2022-09-25T00:48:05.642Z,12.44
2022-09-25T00:53:29.852Z,12.33
2022-09-25T00:58:51.515Z,12.13
2022-09-25T01:04:14.576Z,12.22
2022-09-25T01:09:36.316Z,12.21
2022-09-25T01:14:58.024Z,12.13
2022-09-25T01:20:35.457Z,12.13
2022-09-25T01:26:07.685Z,12.08
2022-09-25T01:31:32.810Z,11.92
2022-09-25T01:36:59.094Z,11.93
2022-09-25T01:42:25.017Z,11.95
2022-09-25T01:47:48.558Z,11.87
2022-09-25T01:53:15.385Z,11.87
2022-09-25T01:58:42.076Z,11.76
2022-09-25T02:04:08.297Z,11.80
2022-09-25T02:09:38.162Z,11.83
2022-09-25T02:15:02.673Z,11.92
2022-09-25T02:20:31.640Z,11.93
2022-09-25T02:25:56.468Z,11.87
2022-09-25T02:31:18.803Z,11.95
2022-09-25T02:36:43.023Z,11.90
2022-09-25T02:42:16.627Z,11.83
2022-09-25T02:47:45.799Z,11.86
2022-09-25T02:53:12.109Z,11.87
2022-09-25T02:58:38.492Z,11.88
2022-09-25T03:04:01.688Z,11.82
2022-09-25T03:09:24.902Z,11.79
2022-09-25T03:14:46.562Z,11.57
2022-09-25T03:20:09.546Z,11.60
2022-09-25T03:25:31.891Z,11.61
2022-09-25T03:30:58.410Z,11.57
2022-09-25T03:36:21.436Z,11.42
2022-09-25T03:41:44.010Z,11.48
2022-09-25T03:47:05.637Z,11.46
2022-09-25T03:52:27.339Z,11.40
2022-09-25T03:57:49.695Z,11.39
2022-09-25T04:03:11.435Z,11.41
2022-09-25T04:08:34.552Z,11.38
2022-09-25T04:13:57.312Z,11.34
2022-09-25T04:19:18.953Z,11.32
2022-09-25T04:24:49.758Z,11.28
2022-09-25T04:30:12.885Z,11.25
2022-09-25T04:35:34.634Z,11.27
2022-09-25T04:40:56.549Z,11.22
2022-09-25T04:46:22.308Z,11.20
2022-09-25T04:51:44.579Z,11.17
2022-09-25T04:57:06.208Z,11.17
2022-09-25T05:02:28.665Z,11.16
2022-09-25T05:07:51.242Z,11.15
2022-09-25T05:13:12.882Z,11.16
2022-09-25T05:18:35.099Z,11.17
2022-09-25T05:23:56.739Z,11.22
2022-09-25T05:29:18.413Z,11.24
2022-09-25T05:34:40.691Z,11.23
2022-09-25T05:40:02.416Z,11.27
2022-09-25T05:45:24.068Z,11.31
2022-09-25T05:50:51.212Z,11.21
2022-09-25T05:56:12.972Z,11.24
2022-09-25T06:01:34.612Z,11.24
2022-09-25T06:07:00.301Z,11.41
2022-09-25T06:12:22.452Z,11.59
2022-09-25T06:17:44.207Z,11.79
2022-09-25T06:23:06.509Z,11.85
2022-09-25T06:28:28.990Z,11.80
2022-09-25T06:33:51.107Z,12.16
2022-09-25T06:39:13.457Z,12.61
2022-09-25T06:44:35.109Z,12.86
2022-09-25T06:49:57.286Z,13.14
2022-09-25T06:55:19.618Z,13.44
2022-09-25T07:00:41.466Z,13.69
2022-09-25T07:06:05.418Z,14.11
2022-09-25T07:11:28.111Z,14.27
2022-09-25T07:16:49.758Z,14.44
2022-09-25T07:22:11.917Z,14.56
2022-09-25T07:27:34.732Z,14.50
2022-09-25T07:33:00.066Z,14.55
2022-09-25T07:38:21.992Z,14.62
2022-09-25T07:43:44.335Z,14.71
2022-09-25T07:49:06.027Z,14.70
2022-09-25T07:54:27.727Z,14.81
2022-09-25T07:59:50.073Z,14.78
2022-09-25T08:05:11.775Z,14.61
2022-09-25T08:10:33.739Z,14.41
2022-09-25T08:15:56.225Z,14.23
2022-09-25T08:21:19.453Z,14.34
2022-09-25T08:26:41.092Z,14.34
2022-09-25T08:32:03.453Z,14.39
2022-09-25T08:37:25.172Z,14.46
2022-09-25T08:42:48.556Z,14.57
2022-09-25T08:48:35.813Z,14.68
2022-09-25T08:53:57.861Z,14.99
2022-09-25T08:59:23.006Z,15.39
2022-09-25T09:04:48.168Z,15.81
2022-09-25T09:10:20.900Z,16.10
2022-09-25T09:15:44.672Z,16.40
2022-09-25T09:21:11.107Z,16.66
2022-09-25T09:26:42.738Z,17.00
2022-09-25T09:32:20.717Z,17.25
2022-09-25T09:37:53.392Z,17.63
2022-09-25T09:43:30.588Z,17.75
2022-09-25T09:49:01.717Z,18.33
2022-09-25T09:54:26.844Z,18.15
2022-09-25T09:59:52.975Z,17.56
2022-09-25T10:05:18.314Z,17.80
2022-09-25T10:10:42.617Z,18.12
2022-09-25T10:16:05.918Z,18.27
2022-09-25T10:21:30.235Z,18.67
2022-09-25T10:26:52.546Z,17.90
2022-09-25T10:32:15.844Z,16.93
2022-09-25T10:37:37.527Z,16.00
2022-09-25T10:43:15.487Z,15.69
2022-09-25T10:48:56.454Z,15.53
2022-09-25T10:54:18.130Z,15.41
2022-09-25T10:59:48.064Z,15.27
2022-09-25T11:05:16.022Z,15.09
2022-09-25T11:10:46.803Z,15.20
2022-09-25T11:16:09.589Z,15.44
2022-09-25T11:21:33.479Z,15.74
2022-09-25T11:26:59.559Z,16.12
2022-09-25T11:32:28.462Z,16.45
2022-09-25T11:38:02.348Z,16.55
2022-09-25T11:43:35.646Z,16.65
2022-09-25T11:49:12.085Z,16.91
2022-09-25T11:54:43.294Z,16.88
2022-09-25T12:00:10.218Z,16.63
2022-09-25T12:05:48.473Z,16.62
2022-09-25T12:11:15.878Z,16.70
2022-09-25T12:16:43.454Z,16.74
2022-09-25T12:22:11.062Z,16.84
2022-09-25T12:27:42.842Z,17.05
2022-09-25T12:33:23.176Z,17.20
2022-09-25T12:38:49.732Z,17.37
2022-09-25T12:44:16.095Z,17.45
2022-09-25T12:49:40.327Z,17.52
2022-09-25T12:55:06.590Z,17.52
2022-09-25T13:00:30.800Z,17.48
2022-09-25T13:05:59.101Z,17.60
2022-09-25T13:11:30.663Z,17.66
2022-09-25T13:16:52.279Z,17.64
2022-09-25T13:22:19.658Z,17.67
2022-09-25T13:27:45.007Z,17.51
2022-09-25T13:33:19.199Z,17.28
2022-09-25T13:39:03.118Z,17.27
2022-09-25T13:45:06.904Z,17.33
2022-09-25T13:50:31.915Z,17.62
2022-09-25T13:56:24.532Z,17.38
2022-09-25T14:01:48.180Z,17.15
2022-09-25T14:07:23.051Z,17.14
2022-09-25T14:12:47.347Z,17.03
2022-09-25T14:18:15.190Z,17.18
2022-09-25T14:23:48.885Z,16.98
2022-09-25T14:29:15.106Z,17.01
2022-09-25T14:34:54.822Z,17.12
2022-09-25T14:40:21.252Z,17.24
2022-09-25T14:45:57.618Z,17.70
2022-09-25T14:51:25.469Z,17.96
2022-09-25T14:56:49.963Z,18.25
2022-09-25T15:02:16.333Z,18.48
2022-09-25T15:07:42.157Z,18.17
2022-09-25T15:13:13.250Z,17.77
2022-09-25T15:18:37.319Z,17.40
2022-09-25T15:24:01.655Z,17.44
2022-09-25T15:29:24.750Z,17.71
2022-09-25T15:34:46.369Z,17.75
2022-09-25T15:40:18.356Z,17.72
2022-09-25T15:45:43.893Z,17.46
2022-09-25T15:51:14.463Z,17.21
2022-09-25T15:56:38.504Z,16.99
2022-09-25T16:02:28.475Z,17.07
2022-09-25T16:07:50.190Z,17.02
2022-09-25T16:13:19.820Z,16.80
2022-09-25T16:18:42.073Z,16.52
2022-09-25T16:24:06.556Z,16.52
2022-09-25T16:29:29.413Z,16.51
2022-09-25T16:34:59.613Z,16.59
2022-09-25T16:40:28.144Z,16.60
2022-09-25T16:45:57.628Z,16.43
2022-09-25T16:51:21.585Z,16.37
2022-09-25T16:56:44.604Z,15.99
2022-09-25T17:02:20.460Z,16.00
2022-09-25T17:07:43.434Z,16.00
2022-09-25T17:13:05.227Z,15.89
2022-09-25T17:18:26.885Z,15.73
2022-09-25T17:23:49.191Z,15.58
2022-09-25T17:29:10.937Z,15.41
2022-09-25T17:34:33.842Z,15.40
2022-09-25T17:39:56.180Z,15.27
2022-09-25T17:45:25.310Z,15.19
2022-09-25T17:50:46.943Z,15.25
2022-09-25T17:56:10.213Z,15.19
2022-09-25T18:01:38.432Z,15.00
2022-09-25T18:07:01.257Z,14.90
2022-09-25T18:12:23.726Z,14.90
2022-09-25T18:17:45.346Z,14.93
2022-09-25T18:23:07.591Z,14.95
2022-09-25T18:28:30.395Z,14.96
2022-09-25T18:33:54.028Z,15.01
2022-09-25T18:39:19.791Z,14.99
2022-09-25T18:44:43.346Z,14.94
2022-09-25T18:50:05.762Z,14.85
2022-09-25T18:55:27.391Z,14.96
2022-09-25T19:00:50.512Z,14.82
2022-09-25T19:06:12.186Z,14.81
2022-09-25T19:11:33.856Z,14.69
2022-09-25T19:16:56.120Z,14.78
2022-09-25T19:22:19.282Z,14.78
2022-09-25T19:27:41.166Z,14.61
2022-09-25T19:33:03.529Z,14.61
2022-09-25T19:38:25.291Z,14.59
2022-09-25T19:43:47.776Z,14.59
2022-09-25T19:49:10.304Z,14.32
2022-09-25T19:54:32.003Z,14.32
2022-09-25T19:59:54.214Z,14.43
2022-09-25T20:05:17.066Z,14.32
2022-09-25T20:10:38.657Z,14.07
2022-09-25T20:16:08.427Z,14.10
2022-09-25T20:21:32.335Z,14.22
2022-09-25T20:26:54.787Z,14.15
2022-09-25T20:32:16.428Z,14.23
2022-09-25T20:37:38.750Z,14.31
2022-09-25T20:43:00.367Z,14.16
2022-09-25T20:48:22.132Z,14.03
2022-09-25T20:53:48.991Z,14.08
2022-09-25T20:59:11.216Z,14.00
2022-09-25T21:04:32.865Z,14.18
2022-09-25T21:09:56.245Z,14.05
2022-09-25T21:15:17.828Z,14.22
2022-09-25T21:20:39.887Z,14.32
2022-09-25T21:26:03.732Z,14.03
2022-09-25T21:31:27.184Z,14.02
2022-09-25T21:36:48.891Z,13.94
2022-09-25T21:42:11.195Z,13.89
2022-09-25T21:47:33.185Z,13.93
2022-09-25T21:52:54.827Z,14.02
2022-09-25T21:58:17.127Z,14.01
2022-09-25T22:03:41.094Z,14.08
2022-09-25T22:09:05.011Z,14.13
2022-09-25T22:14:27.276Z,14.23
2022-09-25T22:19:48.867Z,14.19
2022-09-25T22:25:10.468Z,14.27
2022-09-25T22:30:35.078Z,14.09
2022-09-25T22:35:58.779Z,14.17
2022-09-25T22:41:20.664Z,14.29
2022-09-25T22:46:42.915Z,14.25
2022-09-25T22:52:04.528Z,14.23
2022-09-25T22:57:26.221Z,14.16
2022-09-25T23:02:48.546Z,14.09
2022-09-25T23:08:10.573Z,14.06
2022-09-25T23:13:32.833Z,14.02
2022-09-25T23:18:56.337Z,13.83
2022-09-25T23:24:19.462Z,13.74
2022-09-25T23:29:41.374Z,13.81
2022-09-25T23:35:03.853Z,13.69
2022-09-25T23:40:25.628Z,13.65
2022-09-25T23:45:47.375Z,13.59
2022-09-25T23:51:10.224Z,13.63
2022-09-25T23:56:34.479Z,13.61
